sensor_id;sensor_type;location;lat;lon;timestamp;P1;durP1;ratioP1;P2;durP2;ratioP2
1402;SDS011;696;48.546;9.896;2023-07-22T00:01:05;1.40;;;1.30;;
1402;SDS011;696;48.546;9.896;2023-07-22T00:03:30;3.28;;;1.48;;
1402;SDS011;696;48.546;9.896;2023-07-22T00:06:05;1.63;;;1.45;;
1402;SDS011;696;48.546;9.896;2023-07-22T00:08:32;1.50;;;1.40;;
1402;SDS011;696;48.546;9.896;2023-07-22T00:10:58;2.53;;;1.73;;
1402;SDS011;696;48.546;9.896;2023-07-22T00:13:23;4.32;;;1.92;;
1402;SDS011;696;48.546;9.896;2023-07-22T00:15:51;2.22;;;1.65;;
1402;SDS011;696;48.546;9.896;2023-07-22T00:18:18;2.80;;;1.85;;
1402;SDS011;696;48.546;9.896;2023-07-22T00:20:43;3.17;;;1.77;;
1402;SDS011;696;48.546;9.896;2023-07-22T00:23:08;1.65;;;1.45;;
1402;SDS011;696;48.546;9.896;2023-07-22T00:25:35;2.53;;;1.65;;
1402;SDS011;696;48.546;9.896;2023-07-22T00:28:00;3.97;;;1.80;;
1402;SDS011;696;48.546;9.896;2023-07-22T00:30:26;1.90;;;1.58;;
1402;SDS011;696;48.546;9.896;2023-07-22T00:32:53;2.53;;;1.65;;
1402;SDS011;696;48.546;9.896;2023-07-22T00:35:18;2.45;;;1.60;;
1402;SDS011;696;48.546;9.896;2023-07-22T00:37:44;2.67;;;1.52;;
1402;SDS011;696;48.546;9.896;2023-07-22T00:40:09;3.92;;;2.10;;
1402;SDS011;696;48.546;9.896;2023-07-22T00:42:37;2.40;;;1.83;;
1402;SDS011;696;48.546;9.896;2023-07-22T00:45:03;2.13;;;1.80;;
1402;SDS011;696;48.546;9.896;2023-07-22T00:47:28;1.90;;;1.55;;
1402;SDS011;696;48.546;9.896;2023-07-22T00:49:54;2.65;;;1.30;;
1402;SDS011;696;48.546;9.896;2023-07-22T00:52:19;1.92;;;1.70;;
1402;SDS011;696;48.546;9.896;2023-07-22T00:54:45;5.63;;;1.85;;
1402;SDS011;696;48.546;9.896;2023-07-22T00:57:10;1.90;;;1.50;;
1402;SDS011;696;48.546;9.896;2023-07-22T00:59:36;4.38;;;1.75;;
1402;SDS011;696;48.546;9.896;2023-07-22T01:02:03;2.38;;;1.35;;
1402;SDS011;696;48.546;9.896;2023-07-22T01:04:29;3.67;;;2.10;;
1402;SDS011;696;48.546;9.896;2023-07-22T01:06:54;2.72;;;1.98;;
1402;SDS011;696;48.546;9.896;2023-07-22T01:09:20;4.32;;;2.03;;
1402;SDS011;696;48.546;9.896;2023-07-22T01:11:45;3.35;;;2.17;;
1402;SDS011;696;48.546;9.896;2023-07-22T01:14:10;2.10;;;1.80;;
1402;SDS011;696;48.546;9.896;2023-07-22T01:16:36;6.07;;;2.17;;
1402;SDS011;696;48.546;9.896;2023-07-22T01:19:01;3.83;;;2.13;;
1402;SDS011;696;48.546;9.896;2023-07-22T01:21:26;2.70;;;2.13;;
1402;SDS011;696;48.546;9.896;2023-07-22T01:23:52;3.45;;;2.17;;
1402;SDS011;696;48.546;9.896;2023-07-22T01:26:17;3.00;;;2.17;;
1402;SDS011;696;48.546;9.896;2023-07-22T01:28:43;2.72;;;2.17;;
1402;SDS011;696;48.546;9.896;2023-07-22T01:31:08;5.43;;;1.83;;
1402;SDS011;696;48.546;9.896;2023-07-22T01:33:34;3.20;;;1.90;;
1402;SDS011;696;48.546;9.896;2023-07-22T01:35:59;5.93;;;2.40;;
1402;SDS011;696;48.546;9.896;2023-07-22T01:38:25;2.83;;;2.00;;
1402;SDS011;696;48.546;9.896;2023-07-22T01:40:50;3.08;;;2.00;;
1402;SDS011;696;48.546;9.896;2023-07-22T01:43:16;3.33;;;2.38;;
1402;SDS011;696;48.546;9.896;2023-07-22T01:45:41;3.05;;;2.15;;
1402;SDS011;696;48.546;9.896;2023-07-22T01:48:07;3.20;;;1.95;;
1402;SDS011;696;48.546;9.896;2023-07-22T01:50:33;3.55;;;2.03;;
1402;SDS011;696;48.546;9.896;2023-07-22T01:52:58;3.22;;;1.75;;
1402;SDS011;696;48.546;9.896;2023-07-22T01:55:24;4.25;;;1.88;;
1402;SDS011;696;48.546;9.896;2023-07-22T01:57:49;6.15;;;2.30;;
1402;SDS011;696;48.546;9.896;2023-07-22T02:00:14;2.83;;;2.03;;
1402;SDS011;696;48.546;9.896;2023-07-22T02:02:40;4.53;;;2.42;;
1402;SDS011;696;48.546;9.896;2023-07-22T02:05:06;8.27;;;2.13;;
1402;SDS011;696;48.546;9.896;2023-07-22T02:07:33;2.53;;;1.95;;
1402;SDS011;696;48.546;9.896;2023-07-22T02:09:58;3.05;;;2.00;;
1402;SDS011;696;48.546;9.896;2023-07-22T02:12:24;2.55;;;1.80;;
1402;SDS011;696;48.546;9.896;2023-07-22T02:14:49;3.60;;;1.90;;
1402;SDS011;696;48.546;9.896;2023-07-22T02:17:14;2.03;;;1.70;;
1402;SDS011;696;48.546;9.896;2023-07-22T02:19:40;5.65;;;1.55;;
1402;SDS011;696;48.546;9.896;2023-07-22T02:22:05;2.53;;;1.67;;
1402;SDS011;696;48.546;9.896;2023-07-22T02:24:31;2.95;;;1.73;;
1402;SDS011;696;48.546;9.896;2023-07-22T02:26:56;2.70;;;1.80;;
1402;SDS011;696;48.546;9.896;2023-07-22T02:29:22;2.45;;;1.83;;
1402;SDS011;696;48.546;9.896;2023-07-22T02:31:47;3.85;;;2.20;;
1402;SDS011;696;48.546;9.896;2023-07-22T02:34:12;2.03;;;1.80;;
1402;SDS011;696;48.546;9.896;2023-07-22T02:36:38;3.17;;;2.10;;
1402;SDS011;696;48.546;9.896;2023-07-22T02:39:03;1.88;;;1.67;;
1402;SDS011;696;48.546;9.896;2023-07-22T02:41:28;3.58;;;2.22;;
1402;SDS011;696;48.546;9.896;2023-07-22T02:43:54;3.05;;;2.10;;
1402;SDS011;696;48.546;9.896;2023-07-22T02:46:19;7.38;;;2.60;;
1402;SDS011;696;48.546;9.896;2023-07-22T02:48:44;2.95;;;2.13;;
1402;SDS011;696;48.546;9.896;2023-07-22T02:51:10;2.90;;;2.22;;
1402;SDS011;696;48.546;9.896;2023-07-22T02:53:35;2.55;;;1.80;;
1402;SDS011;696;48.546;9.896;2023-07-22T02:56:02;5.85;;;2.05;;
1402;SDS011;696;48.546;9.896;2023-07-22T02:58:27;2.88;;;1.90;;
1402;SDS011;696;48.546;9.896;2023-07-22T03:00:53;3.78;;;1.90;;
1402;SDS011;696;48.546;9.896;2023-07-22T03:03:18;1.73;;;1.42;;
1402;SDS011;696;48.546;9.896;2023-07-22T03:05:44;3.10;;;1.70;;
1402;SDS011;696;48.546;9.896;2023-07-22T03:08:09;2.75;;;2.17;;
1402;SDS011;696;48.546;9.896;2023-07-22T03:10:35;2.20;;;1.70;;
1402;SDS011;696;48.546;9.896;2023-07-22T03:13:00;2.08;;;1.73;;
1402;SDS011;696;48.546;9.896;2023-07-22T03:15:28;2.47;;;1.75;;
1402;SDS011;696;48.546;9.896;2023-07-22T03:17:54;1.50;;;1.40;;
1402;SDS011;696;48.546;9.896;2023-07-22T03:20:24;1.73;;;1.55;;
1402;SDS011;696;48.546;9.896;2023-07-22T03:22:50;1.60;;;1.50;;
1402;SDS011;696;48.546;9.896;2023-07-22T03:25:15;1.90;;;1.60;;
1402;SDS011;696;48.546;9.896;2023-07-22T03:27:45;2.97;;;1.38;;
1402;SDS011;696;48.546;9.896;2023-07-22T03:30:11;2.10;;;1.60;;
1402;SDS011;696;48.546;9.896;2023-07-22T03:32:42;3.67;;;1.92;;
1402;SDS011;696;48.546;9.896;2023-07-22T03:35:08;5.25;;;2.10;;
1402;SDS011;696;48.546;9.896;2023-07-22T03:37:37;2.13;;;1.90;;
1402;SDS011;696;48.546;9.896;2023-07-22T03:40:06;2.45;;;2.20;;
1402;SDS011;696;48.546;9.896;2023-07-22T03:42:53;3.80;;;2.63;;
1402;SDS011;696;48.546;9.896;2023-07-22T03:45:20;5.95;;;2.35;;
1402;SDS011;696;48.546;9.896;2023-07-22T03:47:46;2.50;;;1.83;;
1402;SDS011;696;48.546;9.896;2023-07-22T03:50:15;7.15;;;2.22;;
1402;SDS011;696;48.546;9.896;2023-07-22T03:52:41;3.13;;;2.00;;
1402;SDS011;696;48.546;9.896;2023-07-22T03:55:06;2.95;;;1.88;;
1402;SDS011;696;48.546;9.896;2023-07-22T03:57:32;4.45;;;2.03;;
1402;SDS011;696;48.546;9.896;2023-07-22T03:59:57;2.85;;;1.90;;
1402;SDS011;696;48.546;9.896;2023-07-22T04:02:23;3.40;;;2.10;;
1402;SDS011;696;48.546;9.896;2023-07-22T04:04:53;2.50;;;1.80;;
1402;SDS011;696;48.546;9.896;2023-07-22T04:07:19;3.03;;;2.20;;
1402;SDS011;696;48.546;9.896;2023-07-22T04:09:44;2.40;;;1.90;;
1402;SDS011;696;48.546;9.896;2023-07-22T04:12:10;2.42;;;1.85;;
1402;SDS011;696;48.546;9.896;2023-07-22T04:14:35;2.13;;;1.85;;
1402;SDS011;696;48.546;9.896;2023-07-22T04:17:01;2.20;;;1.90;;
1402;SDS011;696;48.546;9.896;2023-07-22T04:19:26;4.63;;;2.45;;
1402;SDS011;696;48.546;9.896;2023-07-22T04:21:51;5.07;;;2.60;;
1402;SDS011;696;48.546;9.896;2023-07-22T04:24:18;4.50;;;2.97;;
1402;SDS011;696;48.546;9.896;2023-07-22T04:26:44;7.85;;;2.75;;
1402;SDS011;696;48.546;9.896;2023-07-22T04:29:10;3.58;;;2.80;;
1402;SDS011;696;48.546;9.896;2023-07-22T04:31:36;4.68;;;3.22;;
1402;SDS011;696;48.546;9.896;2023-07-22T04:34:02;4.45;;;3.40;;
1402;SDS011;696;48.546;9.896;2023-07-22T04:36:27;5.30;;;2.75;;
1402;SDS011;696;48.546;9.896;2023-07-22T04:38:52;3.08;;;2.50;;
1402;SDS011;696;48.546;9.896;2023-07-22T04:41:18;3.00;;;2.72;;
1402;SDS011;696;48.546;9.896;2023-07-22T04:43:43;3.65;;;3.28;;
1402;SDS011;696;48.546;9.896;2023-07-22T04:46:08;3.80;;;3.20;;
1402;SDS011;696;48.546;9.896;2023-07-22T04:48:34;3.60;;;2.97;;
1402;SDS011;696;48.546;9.896;2023-07-22T04:50:59;4.35;;;3.00;;
1402;SDS011;696;48.546;9.896;2023-07-22T04:53:25;5.80;;;2.75;;
1402;SDS011;696;48.546;9.896;2023-07-22T04:55:50;6.00;;;3.00;;
1402;SDS011;696;48.546;9.896;2023-07-22T04:58:15;3.38;;;2.78;;
1402;SDS011;696;48.546;9.896;2023-07-22T05:00:41;3.92;;;2.55;;
1402;SDS011;696;48.546;9.896;2023-07-22T05:03:07;4.68;;;2.85;;
1402;SDS011;696;48.546;9.896;2023-07-22T05:05:33;3.28;;;2.63;;
1402;SDS011;696;48.546;9.896;2023-07-22T05:07:58;3.13;;;2.47;;
1402;SDS011;696;48.546;9.896;2023-07-22T05:10:23;2.72;;;2.17;;
1402;SDS011;696;48.546;9.896;2023-07-22T05:12:49;3.13;;;2.40;;
1402;SDS011;696;48.546;9.896;2023-07-22T05:15:14;3.20;;;2.40;;
1402;SDS011;696;48.546;9.896;2023-07-22T05:17:40;4.55;;;2.67;;
1402;SDS011;696;48.546;9.896;2023-07-22T05:20:06;2.80;;;2.20;;
1402;SDS011;696;48.546;9.896;2023-07-22T05:22:34;3.72;;;2.10;;
1402;SDS011;696;48.546;9.896;2023-07-22T05:24:59;3.88;;;2.67;;
1402;SDS011;696;48.546;9.896;2023-07-22T05:27:25;4.90;;;2.35;;
1402;SDS011;696;48.546;9.896;2023-07-22T05:29:50;3.22;;;2.38;;
1402;SDS011;696;48.546;9.896;2023-07-22T05:32:15;3.00;;;2.50;;
1402;SDS011;696;48.546;9.896;2023-07-22T05:34:41;2.80;;;2.05;;
1402;SDS011;696;48.546;9.896;2023-07-22T05:37:06;2.85;;;1.88;;
1402;SDS011;696;48.546;9.896;2023-07-22T05:39:32;4.68;;;2.38;;
1402;SDS011;696;48.546;9.896;2023-07-22T05:41:57;3.58;;;2.90;;
1402;SDS011;696;48.546;9.896;2023-07-22T05:44:22;4.40;;;2.40;;
1402;SDS011;696;48.546;9.896;2023-07-22T05:46:48;3.85;;;2.33;;
1402;SDS011;696;48.546;9.896;2023-07-22T05:49:13;5.25;;;2.13;;
1402;SDS011;696;48.546;9.896;2023-07-22T05:51:38;4.35;;;2.53;;
1402;SDS011;696;48.546;9.896;2023-07-22T05:54:04;3.42;;;2.42;;
1402;SDS011;696;48.546;9.896;2023-07-22T05:56:29;3.22;;;2.45;;
1402;SDS011;696;48.546;9.896;2023-07-22T05:58:55;4.70;;;2.72;;
1402;SDS011;696;48.546;9.896;2023-07-22T06:01:20;4.13;;;2.70;;
1402;SDS011;696;48.546;9.896;2023-07-22T06:03:47;3.78;;;2.80;;
1402;SDS011;696;48.546;9.896;2023-07-22T06:06:12;4.65;;;2.13;;
1402;SDS011;696;48.546;9.896;2023-07-22T06:08:37;6.18;;;2.03;;
1402;SDS011;696;48.546;9.896;2023-07-22T06:11:03;2.47;;;1.80;;
1402;SDS011;696;48.546;9.896;2023-07-22T06:13:28;4.35;;;2.30;;
1402;SDS011;696;48.546;9.896;2023-07-22T06:15:53;4.03;;;2.38;;
1402;SDS011;696;48.546;9.896;2023-07-22T06:18:19;3.63;;;2.17;;
1402;SDS011;696;48.546;9.896;2023-07-22T06:20:44;2.28;;;1.88;;
1402;SDS011;696;48.546;9.896;2023-07-22T06:23:10;5.05;;;1.83;;
1402;SDS011;696;48.546;9.896;2023-07-22T06:25:35;2.92;;;1.83;;
1402;SDS011;696;48.546;9.896;2023-07-22T06:28:01;2.95;;;2.03;;
1402;SDS011;696;48.546;9.896;2023-07-22T06:30:26;3.35;;;1.73;;
1402;SDS011;696;48.546;9.896;2023-07-22T06:32:52;3.30;;;1.60;;
1402;SDS011;696;48.546;9.896;2023-07-22T06:35:17;4.38;;;2.13;;
1402;SDS011;696;48.546;9.896;2023-07-22T06:37:43;7.03;;;2.28;;
1402;SDS011;696;48.546;9.896;2023-07-22T06:40:08;2.22;;;1.60;;
1402;SDS011;696;48.546;9.896;2023-07-22T06:42:33;2.85;;;1.58;;
1402;SDS011;696;48.546;9.896;2023-07-22T06:44:59;8.57;;;2.53;;
1402;SDS011;696;48.546;9.896;2023-07-22T06:47:24;2.70;;;2.00;;
1402;SDS011;696;48.546;9.896;2023-07-22T06:49:49;3.42;;;2.10;;
1402;SDS011;696;48.546;9.896;2023-07-22T06:52:18;1.98;;;1.65;;
1402;SDS011;696;48.546;9.896;2023-07-22T06:54:43;2.97;;;1.85;;
1402;SDS011;696;48.546;9.896;2023-07-22T06:57:08;2.50;;;1.58;;
1402;SDS011;696;48.546;9.896;2023-07-22T06:59:34;3.08;;;1.90;;
1402;SDS011;696;48.546;9.896;2023-07-22T07:01:59;2.35;;;1.60;;
1402;SDS011;696;48.546;9.896;2023-07-22T07:04:25;3.63;;;1.77;;
1402;SDS011;696;48.546;9.896;2023-07-22T07:06:50;1.80;;;1.40;;
1402;SDS011;696;48.546;9.896;2023-07-22T07:09:16;1.20;;;1.00;;
1402;SDS011;696;48.546;9.896;2023-07-22T07:11:41;5.05;;;1.70;;
1402;SDS011;696;48.546;9.896;2023-07-22T07:14:06;2.20;;;1.50;;
1402;SDS011;696;48.546;9.896;2023-07-22T07:16:32;1.45;;;1.20;;
1402;SDS011;696;48.546;9.896;2023-07-22T07:18:59;1.75;;;1.50;;
1402;SDS011;696;48.546;9.896;2023-07-22T07:21:25;1.52;;;1.27;;
1402;SDS011;696;48.546;9.896;2023-07-22T07:23:51;2.40;;;1.33;;
1402;SDS011;696;48.546;9.896;2023-07-22T07:26:17;2.63;;;1.35;;
1402;SDS011;696;48.546;9.896;2023-07-22T07:28:42;4.53;;;1.20;;
1402;SDS011;696;48.546;9.896;2023-07-22T07:31:08;2.13;;;1.30;;
1402;SDS011;696;48.546;9.896;2023-07-22T07:33:33;1.30;;;1.13;;
1402;SDS011;696;48.546;9.896;2023-07-22T07:35:59;1.38;;;1.02;;
1402;SDS011;696;48.546;9.896;2023-07-22T07:38:25;1.00;;;0.85;;
1402;SDS011;696;48.546;9.896;2023-07-22T07:40:55;1.02;;;0.93;;
1402;SDS011;696;48.546;9.896;2023-07-22T07:43:21;9.07;;;1.27;;
1402;SDS011;696;48.546;9.896;2023-07-22T07:45:47;2.85;;;1.10;;
1402;SDS011;696;48.546;9.896;2023-07-22T07:48:12;1.35;;;0.93;;
1402;SDS011;696;48.546;9.896;2023-07-22T07:50:37;1.33;;;0.98;;
1402;SDS011;696;48.546;9.896;2023-07-22T07:53:03;1.55;;;1.17;;
1402;SDS011;696;48.546;9.896;2023-07-22T07:55:28;0.80;;;0.80;;
1402;SDS011;696;48.546;9.896;2023-07-22T07:57:53;2.38;;;1.20;;
1402;SDS011;696;48.546;9.896;2023-07-22T08:00:19;2.10;;;1.13;;
1402;SDS011;696;48.546;9.896;2023-07-22T08:02:46;2.00;;;1.15;;
1402;SDS011;696;48.546;9.896;2023-07-22T08:05:11;2.83;;;1.00;;
1402;SDS011;696;48.546;9.896;2023-07-22T08:07:37;0.90;;;0.77;;
1402;SDS011;696;48.546;9.896;2023-07-22T08:10:03;2.00;;;1.20;;
1402;SDS011;696;48.546;9.896;2023-07-22T08:12:29;1.00;;;0.90;;
1402;SDS011;696;48.546;9.896;2023-07-22T08:14:55;1.65;;;0.80;;
1402;SDS011;696;48.546;9.896;2023-07-22T08:17:21;1.88;;;0.93;;
1402;SDS011;696;48.546;9.896;2023-07-22T08:19:46;1.63;;;0.90;;
1402;SDS011;696;48.546;9.896;2023-07-22T08:22:12;2.22;;;1.15;;
1402;SDS011;696;48.546;9.896;2023-07-22T08:24:37;1.10;;;1.00;;
1402;SDS011;696;48.546;9.896;2023-07-22T08:27:03;1.85;;;1.40;;
1402;SDS011;696;48.546;9.896;2023-07-22T08:29:28;1.67;;;1.13;;
1402;SDS011;696;48.546;9.896;2023-07-22T08:31:54;1.92;;;1.15;;
1402;SDS011;696;48.546;9.896;2023-07-22T08:34:19;1.40;;;1.13;;
1402;SDS011;696;48.546;9.896;2023-07-22T08:36:44;2.67;;;1.10;;
1402;SDS011;696;48.546;9.896;2023-07-22T08:39:10;1.40;;;0.95;;
1402;SDS011;696;48.546;9.896;2023-07-22T08:41:36;2.13;;;1.15;;
1402;SDS011;696;48.546;9.896;2023-07-22T08:44:01;1.35;;;0.95;;
1402;SDS011;696;48.546;9.896;2023-07-22T08:46:28;1.23;;;1.05;;
1402;SDS011;696;48.546;9.896;2023-07-22T08:48:57;1.05;;;0.93;;
1402;SDS011;696;48.546;9.896;2023-07-22T08:51:24;1.95;;;1.15;;
1402;SDS011;696;48.546;9.896;2023-07-22T08:53:53;1.23;;;0.90;;
1402;SDS011;696;48.546;9.896;2023-07-22T08:56:21;2.33;;;1.25;;
1402;SDS011;696;48.546;9.896;2023-07-22T08:58:51;1.52;;;1.27;;
1402;SDS011;696;48.546;9.896;2023-07-22T09:01:17;1.90;;;1.05;;
1402;SDS011;696;48.546;9.896;2023-07-22T09:03:42;1.92;;;0.90;;
1402;SDS011;696;48.546;9.896;2023-07-22T09:06:08;0.93;;;0.80;;
1402;SDS011;696;48.546;9.896;2023-07-22T09:08:33;2.47;;;1.20;;
1402;SDS011;696;48.546;9.896;2023-07-22T09:10:58;2.55;;;1.60;;
1402;SDS011;696;48.546;9.896;2023-07-22T09:13:24;2.33;;;1.38;;
1402;SDS011;696;48.546;9.896;2023-07-22T09:15:51;1.70;;;1.05;;
1402;SDS011;696;48.546;9.896;2023-07-22T09:18:16;1.83;;;1.13;;
1402;SDS011;696;48.546;9.896;2023-07-22T09:20:42;1.23;;;1.13;;
1402;SDS011;696;48.546;9.896;2023-07-22T09:23:07;4.40;;;1.25;;
1402;SDS011;696;48.546;9.896;2023-07-22T09:25:33;7.43;;;1.52;;
1402;SDS011;696;48.546;9.896;2023-07-22T09:27:59;1.30;;;1.10;;
1402;SDS011;696;48.546;9.896;2023-07-22T09:30:32;4.93;;;1.30;;
1402;SDS011;696;48.546;9.896;2023-07-22T09:33:00;3.33;;;1.10;;
1402;SDS011;696;48.546;9.896;2023-07-22T09:35:29;1.55;;;1.13;;
1402;SDS011;696;48.546;9.896;2023-07-22T09:38:22;1.50;;;1.10;;
1402;SDS011;696;48.546;9.896;2023-07-22T09:40:49;2.10;;;1.27;;
1402;SDS011;696;48.546;9.896;2023-07-22T09:43:14;2.10;;;1.30;;
1402;SDS011;696;48.546;9.896;2023-07-22T09:45:39;1.60;;;1.33;;
1402;SDS011;696;48.546;9.896;2023-07-22T09:48:05;5.65;;;1.40;;
1402;SDS011;696;48.546;9.896;2023-07-22T09:50:30;1.40;;;1.23;;
1402;SDS011;696;48.546;9.896;2023-07-22T09:52:56;2.60;;;1.05;;
1402;SDS011;696;48.546;9.896;2023-07-22T09:55:29;1.67;;;1.10;;
1402;SDS011;696;48.546;9.896;2023-07-22T09:57:57;2.25;;;1.33;;
1402;SDS011;696;48.546;9.896;2023-07-22T10:00:30;1.42;;;1.02;;
1402;SDS011;696;48.546;9.896;2023-07-22T10:02:58;2.00;;;1.10;;
1402;SDS011;696;48.546;9.896;2023-07-22T10:05:25;3.00;;;1.38;;
1402;SDS011;696;48.546;9.896;2023-07-22T10:07:52;1.98;;;1.15;;
1402;SDS011;696;48.546;9.896;2023-07-22T10:10:20;2.33;;;1.10;;
1402;SDS011;696;48.546;9.896;2023-07-22T10:12:46;3.28;;;0.98;;
1402;SDS011;696;48.546;9.896;2023-07-22T10:15:12;1.23;;;1.08;;
1402;SDS011;696;48.546;9.896;2023-07-22T10:17:39;4.00;;;1.20;;
1402;SDS011;696;48.546;9.896;2023-07-22T10:20:05;1.60;;;1.08;;
1402;SDS011;696;48.546;9.896;2023-07-22T10:22:36;1.95;;;1.15;;
1402;SDS011;696;48.546;9.896;2023-07-22T10:25:05;2.95;;;1.10;;
1402;SDS011;696;48.546;9.896;2023-07-22T10:27:34;1.92;;;1.00;;
1402;SDS011;696;48.546;9.896;2023-07-22T10:30:01;1.65;;;1.20;;
1402;SDS011;696;48.546;9.896;2023-07-22T10:32:35;1.92;;;1.20;;
1402;SDS011;696;48.546;9.896;2023-07-22T10:35:01;1.45;;;1.20;;
1402;SDS011;696;48.546;9.896;2023-07-22T10:37:30;1.75;;;1.20;;
1402;SDS011;696;48.546;9.896;2023-07-22T10:39:59;1.75;;;1.00;;
1402;SDS011;696;48.546;9.896;2023-07-22T10:42:25;1.25;;;1.00;;
1402;SDS011;696;48.546;9.896;2023-07-22T10:44:51;1.40;;;1.00;;
1402;SDS011;696;48.546;9.896;2023-07-22T10:47:32;2.50;;;1.15;;
1402;SDS011;696;48.546;9.896;2023-07-22T10:50:04;1.33;;;1.00;;
1402;SDS011;696;48.546;9.896;2023-07-22T10:52:42;4.88;;;1.55;;
1402;SDS011;696;48.546;9.896;2023-07-22T10:55:18;1.42;;;0.95;;
1402;SDS011;696;48.546;9.896;2023-07-22T10:57:48;1.27;;;0.90;;
1402;SDS011;696;48.546;9.896;2023-07-22T11:00:18;2.40;;;1.10;;
1402;SDS011;696;48.546;9.896;2023-07-22T11:02:46;2.70;;;0.88;;
1402;SDS011;696;48.546;9.896;2023-07-22T11:05:13;1.05;;;0.85;;
1402;SDS011;696;48.546;9.896;2023-07-22T11:07:44;1.90;;;0.95;;
1402;SDS011;696;48.546;9.896;2023-07-22T11:10:18;1.45;;;1.00;;
1402;SDS011;696;48.546;9.896;2023-07-22T11:12:44;1.35;;;1.10;;
1402;SDS011;696;48.546;9.896;2023-07-22T11:15:10;1.95;;;0.90;;
1402;SDS011;696;48.546;9.896;2023-07-22T11:17:35;7.55;;;1.38;;
1402;SDS011;696;48.546;9.896;2023-07-22T11:20:02;2.17;;;1.20;;
1402;SDS011;696;48.546;9.896;2023-07-22T11:22:28;2.42;;;1.02;;
1402;SDS011;696;48.546;9.896;2023-07-22T11:24:56;1.45;;;1.00;;
1402;SDS011;696;48.546;9.896;2023-07-22T11:27:23;1.48;;;0.95;;
1402;SDS011;696;48.546;9.896;2023-07-22T11:29:48;1.63;;;0.93;;
1402;SDS011;696;48.546;9.896;2023-07-22T11:32:15;3.22;;;1.30;;
1402;SDS011;696;48.546;9.896;2023-07-22T11:34:46;1.23;;;0.90;;
1402;SDS011;696;48.546;9.896;2023-07-22T11:37:11;1.48;;;1.17;;
1402;SDS011;696;48.546;9.896;2023-07-22T11:39:37;0.95;;;0.82;;
1402;SDS011;696;48.546;9.896;2023-07-22T11:42:03;3.05;;;1.00;;
1402;SDS011;696;48.546;9.896;2023-07-22T11:44:28;1.63;;;1.20;;
1402;SDS011;696;48.546;9.896;2023-07-22T11:46:56;1.13;;;1.02;;
1402;SDS011;696;48.546;9.896;2023-07-22T11:49:35;2.03;;;1.10;;
1402;SDS011;696;48.546;9.896;2023-07-22T11:52:02;2.15;;;1.00;;
1402;SDS011;696;48.546;9.896;2023-07-22T11:54:29;5.10;;;1.23;;
1402;SDS011;696;48.546;9.896;2023-07-22T11:56:55;1.30;;;1.08;;
1402;SDS011;696;48.546;9.896;2023-07-22T11:59:34;1.33;;;1.00;;
1402;SDS011;696;48.546;9.896;2023-07-22T12:02:01;1.45;;;1.23;;
1402;SDS011;696;48.546;9.896;2023-07-22T12:04:29;4.93;;;1.25;;
1402;SDS011;696;48.546;9.896;2023-07-22T12:06:55;1.92;;;1.38;;
1402;SDS011;696;48.546;9.896;2023-07-22T12:09:21;4.45;;;1.10;;
1402;SDS011;696;48.546;9.896;2023-07-22T12:11:46;2.53;;;1.50;;
1402;SDS011;696;48.546;9.896;2023-07-22T12:14:14;1.35;;;1.10;;
1402;SDS011;696;48.546;9.896;2023-07-22T12:16:40;2.88;;;1.23;;
1402;SDS011;696;48.546;9.896;2023-07-22T12:19:06;3.67;;;1.20;;
1402;SDS011;696;48.546;9.896;2023-07-22T12:21:33;1.38;;;1.00;;
1402;SDS011;696;48.546;9.896;2023-07-22T12:23:59;1.85;;;1.35;;
1402;SDS011;696;48.546;9.896;2023-07-22T12:26:24;4.15;;;1.50;;
1402;SDS011;696;48.546;9.896;2023-07-22T12:28:50;1.58;;;1.10;;
1402;SDS011;696;48.546;9.896;2023-07-22T12:31:15;3.10;;;1.40;;
1402;SDS011;696;48.546;9.896;2023-07-22T12:33:41;2.95;;;1.30;;
1402;SDS011;696;48.546;9.896;2023-07-22T12:36:07;1.10;;;1.00;;
1402;SDS011;696;48.546;9.896;2023-07-22T12:38:32;1.42;;;1.00;;
1402;SDS011;696;48.546;9.896;2023-07-22T12:40:57;1.08;;;0.98;;
1402;SDS011;696;48.546;9.896;2023-07-22T12:43:23;3.50;;;1.08;;
1402;SDS011;696;48.546;9.896;2023-07-22T12:45:48;1.27;;;0.95;;
1402;SDS011;696;48.546;9.896;2023-07-22T12:48:13;1.90;;;1.00;;
1402;SDS011;696;48.546;9.896;2023-07-22T12:50:39;2.40;;;1.13;;
1402;SDS011;696;48.546;9.896;2023-07-22T12:53:04;1.10;;;0.65;;
1402;SDS011;696;48.546;9.896;2023-07-22T12:55:30;1.95;;;1.20;;
1402;SDS011;696;48.546;9.896;2023-07-22T12:57:55;2.35;;;1.20;;
1402;SDS011;696;48.546;9.896;2023-07-22T13:00:21;6.55;;;1.33;;
1402;SDS011;696;48.546;9.896;2023-07-22T13:02:46;1.58;;;1.13;;
1402;SDS011;696;48.546;9.896;2023-07-22T13:05:12;1.27;;;1.13;;
1402;SDS011;696;48.546;9.896;2023-07-22T13:07:40;1.17;;;1.00;;
1402;SDS011;696;48.546;9.896;2023-07-22T13:10:06;2.70;;;1.00;;
1402;SDS011;696;48.546;9.896;2023-07-22T13:12:35;1.95;;;1.23;;
1402;SDS011;696;48.546;9.896;2023-07-22T13:15:02;1.45;;;1.10;;
1402;SDS011;696;48.546;9.896;2023-07-22T13:17:27;1.92;;;1.00;;
1402;SDS011;696;48.546;9.896;2023-07-22T13:19:52;1.08;;;0.98;;
1402;SDS011;696;48.546;9.896;2023-07-22T13:22:18;1.25;;;1.00;;
1402;SDS011;696;48.546;9.896;2023-07-22T13:24:43;1.55;;;1.25;;
1402;SDS011;696;48.546;9.896;2023-07-22T13:27:08;3.53;;;1.30;;
1402;SDS011;696;48.546;9.896;2023-07-22T13:29:34;2.60;;;1.17;;
1402;SDS011;696;48.546;9.896;2023-07-22T13:31:59;2.58;;;1.30;;
1402;SDS011;696;48.546;9.896;2023-07-22T13:34:25;5.50;;;1.38;;
1402;SDS011;696;48.546;9.896;2023-07-22T13:36:50;2.00;;;1.40;;
1402;SDS011;696;48.546;9.896;2023-07-22T13:39:16;2.20;;;1.42;;
1402;SDS011;696;48.546;9.896;2023-07-22T13:41:41;2.35;;;1.30;;
1402;SDS011;696;48.546;9.896;2023-07-22T13:44:06;1.77;;;1.27;;
1402;SDS011;696;48.546;9.896;2023-07-22T13:46:32;3.25;;;1.42;;
1402;SDS011;696;48.546;9.896;2023-07-22T13:48:57;1.38;;;1.17;;
1402;SDS011;696;48.546;9.896;2023-07-22T13:51:22;1.45;;;1.20;;
1402;SDS011;696;48.546;9.896;2023-07-22T13:53:48;2.45;;;1.63;;
1402;SDS011;696;48.546;9.896;2023-07-22T13:56:13;2.22;;;1.40;;
1402;SDS011;696;48.546;9.896;2023-07-22T13:58:39;1.88;;;1.30;;
1402;SDS011;696;48.546;9.896;2023-07-22T14:01:04;1.77;;;1.42;;
1402;SDS011;696;48.546;9.896;2023-07-22T14:03:29;2.22;;;1.50;;
1402;SDS011;696;48.546;9.896;2023-07-22T14:05:55;3.20;;;1.75;;
1402;SDS011;696;48.546;9.896;2023-07-22T14:08:21;3.20;;;1.77;;
1402;SDS011;696;48.546;9.896;2023-07-22T14:10:46;1.83;;;1.35;;
1402;SDS011;696;48.546;9.896;2023-07-22T14:13:11;2.05;;;1.65;;
1402;SDS011;696;48.546;9.896;2023-07-22T14:15:38;2.88;;;1.55;;
1402;SDS011;696;48.546;9.896;2023-07-22T14:18:03;4.93;;;1.83;;
1402;SDS011;696;48.546;9.896;2023-07-22T14:20:29;2.83;;;1.58;;
1402;SDS011;696;48.546;9.896;2023-07-22T14:22:55;2.63;;;1.50;;
1402;SDS011;696;48.546;9.896;2023-07-22T14:25:21;3.47;;;1.60;;
1402;SDS011;696;48.546;9.896;2023-07-22T14:27:46;6.25;;;1.90;;
1402;SDS011;696;48.546;9.896;2023-07-22T14:30:12;3.08;;;2.13;;
1402;SDS011;696;48.546;9.896;2023-07-22T14:32:37;2.53;;;1.52;;
1402;SDS011;696;48.546;9.896;2023-07-22T14:35:03;3.75;;;1.73;;
1402;SDS011;696;48.546;9.896;2023-07-22T14:37:29;2.90;;;1.73;;
1402;SDS011;696;48.546;9.896;2023-07-22T14:39:54;7.30;;;2.28;;
1402;SDS011;696;48.546;9.896;2023-07-22T14:42:20;2.63;;;1.70;;
1402;SDS011;696;48.546;9.896;2023-07-22T14:44:45;2.88;;;1.80;;
1402;SDS011;696;48.546;9.896;2023-07-22T14:47:10;3.15;;;1.90;;
1402;SDS011;696;48.546;9.896;2023-07-22T14:49:36;2.85;;;1.60;;
1402;SDS011;696;48.546;9.896;2023-07-22T14:52:01;2.50;;;1.70;;
1402;SDS011;696;48.546;9.896;2023-07-22T14:54:27;3.55;;;2.25;;
1402;SDS011;696;48.546;9.896;2023-07-22T14:56:52;5.18;;;2.28;;
1402;SDS011;696;48.546;9.896;2023-07-22T14:59:17;3.50;;;1.80;;
1402;SDS011;696;48.546;9.896;2023-07-22T15:01:43;2.53;;;1.77;;
1402;SDS011;696;48.546;9.896;2023-07-22T15:04:08;2.38;;;1.90;;
1402;SDS011;696;48.546;9.896;2023-07-22T15:06:34;2.65;;;1.50;;
1402;SDS011;696;48.546;9.896;2023-07-22T15:09:00;3.55;;;2.13;;
1402;SDS011;696;48.546;9.896;2023-07-22T15:11:26;3.67;;;1.80;;
1402;SDS011;696;48.546;9.896;2023-07-22T15:13:52;3.88;;;1.77;;
1402;SDS011;696;48.546;9.896;2023-07-22T15:16:18;4.60;;;1.95;;
1402;SDS011;696;48.546;9.896;2023-07-22T15:18:43;2.10;;;1.60;;
1402;SDS011;696;48.546;9.896;2023-07-22T15:21:08;3.10;;;2.03;;
1402;SDS011;696;48.546;9.896;2023-07-22T15:23:34;3.20;;;1.77;;